Time;durP1;ratioP1;P1;durP2;ratioP2;P2;SDS_P1;SDS_P2;PMS_P1;PMS_P2;Temp;Humidity;BMP_temperature;BMP_pressure;BME280_temperature;BME280_humidity;BME280_pressure;Samples;Min_cycle;Max_cycle;Signal;HPM_P1;HPM_P2
2022/04/01 00:00:39;;;;;;;;;;;2.00;99.90;;;;;;5058371;28;19924;-83
2022/04/01 00:03:08;;;;;;;;;;;2.00;99.90;;;;;;5058938;28;20032;-83
2022/04/01 00:05:35;;;;;;;;;;;2.00;99.90;;;;;;5058027;28;19920;-83
2022/04/01 00:08:02;;;;;;;;;;;2.00;99.90;;;;;;5059432;28;20392;-84
2022/04/01 00:10:29;;;;;;;;;;;2.00;99.90;;;;;;5043918;28;19974;-81
2022/04/01 00:12:56;;;;;;;;;;;3.80;99.90;;;;;;5042691;28;19927;-82
2022/04/01 00:15:24;;;;;;;;;;;1.90;99.90;;;;;;5061332;28;19937;-81
2022/04/01 00:17:51;;;;;;;;;;;1.90;99.90;;;;;;5043972;28;19936;-83
2022/04/01 00:20:19;;;;;;;;;;;1.80;99.90;;;;;;5044272;28;19932;-80
2022/04/01 00:22:46;;;;;;;;;;;1.80;99.90;;;;;;5062955;28;19929;-83
2022/04/01 00:25:14;;;;;;;;;;;1.90;99.90;;;;;;5043362;28;19939;-81
2022/04/01 00:27:41;;;;;;;;;;;1.80;99.90;;;;;;5045101;28;19943;-81
2022/04/01 00:30:19;;;;;;;;;;;1.90;99.90;;;;;;5062638;28;19935;-81
2022/04/01 00:32:46;;;;;;;;;;;1.80;99.90;;;;;;5062092;28;19940;-84
2022/04/01 00:35:13;;;;;;;;;;;1.90;99.90;;;;;;5035585;28;20387;-82
2022/04/01 00:37:42;;;;;;;;;;;1.80;99.90;;;;;;5046319;28;19928;-82
2022/04/01 00:40:12;;;;;;;;;;;1.90;99.90;;;;;;5051903;28;19932;-82
2022/04/01 00:42:40;;;;;;;;;;;1.80;99.90;;;;;;5051764;28;19935;-84
2022/04/01 00:45:07;;;;;;;;;;;0.00;99.90;;;;;;5050063;28;19925;-84
2022/04/01 00:47:34;;;;;;;;;;;1.90;99.90;;;;;;5040943;28;19936;-83
2022/04/01 00:50:01;;;;;;;;;;;1.80;99.90;;;;;;5061049;28;20442;-84
2022/04/01 00:52:28;;;;;;;;;;;1.70;99.90;;;;;;5058755;28;19921;-82
2022/04/01 00:54:57;;;;;;;;;;;1.70;99.90;;;;;;5031914;28;19970;-82
2022/04/01 00:57:25;;;;;;;;;;;1.70;99.90;;;;;;5058391;28;19925;-83
2022/04/01 00:59:54;;;;;;;;;;;4.00;99.90;;;;;;5029560;28;19929;-84
2022/04/01 01:02:21;;;;;;;;;;;1.70;99.90;;;;;;5054523;28;19924;-84
2022/04/01 01:04:48;;;;;;;;;;;1.80;99.90;;;;;;5063634;28;20299;-83
2022/04/01 01:07:15;;;;;;;;;;;1.80;99.90;;;;;;5040753;28;19928;-82
2022/04/01 01:09:43;;;;;;;;;;;1.80;99.90;;;;;;5038552;28;19935;-84
2022/04/01 01:12:13;;;;;;;;;;;1.70;99.90;;;;;;5057537;28;19937;-81
2022/04/01 01:14:40;;;;;;;;;;;1.70;99.90;;;;;;5044007;28;19912;-82
2022/04/01 01:17:10;;;;;;;;;;;1.70;99.90;;;;;;5042837;28;19975;-82
2022/04/01 01:19:37;;;;;;;;;;;1.70;99.90;;;;;;5037802;28;19937;-82
2022/04/01 01:22:04;;;;;;;;;;;1.80;99.90;;;;;;5052979;28;19928;-83
2022/04/01 01:24:33;;;;;;;;;;;1.70;99.90;;;;;;5041324;28;19940;-83
2022/04/01 01:27:01;;;;;;;;;;;1.70;99.90;;;;;;5039333;28;19931;-84
2022/04/01 01:29:29;;;;;;;;;;;1.70;99.90;;;;;;5055823;28;20308;-82
2022/04/01 01:31:57;;;;;;;;;;;1.70;99.90;;;;;;5037324;28;19925;-83
2022/04/01 01:34:25;;;;;;;;;;;1.60;99.90;;;;;;5040405;28;19935;-83
2022/04/01 01:36:52;;;;;;;;;;;1.70;99.90;;;;;;5042342;28;19932;-83
2022/04/01 01:39:19;;;;;;;;;;;1.70;99.90;;;;;;5055839;28;19925;-83
2022/04/01 01:41:49;;;;;;;;;;;1.60;99.90;;;;;;5043984;28;19929;-83
2022/04/01 01:44:17;;;;;;;;;;;1.70;99.90;;;;;;5035499;28;19925;-84
2022/04/01 01:46:44;;;;;;;;;;;3.60;99.90;;;;;;5040305;28;19982;-84
2022/04/01 01:49:12;;;;;;;;;;;1.60;99.90;;;;;;5041957;28;19928;-83
2022/04/01 01:54:44;;;;;;;;;;;1.60;99.90;;;;;;5036602;28;19948;-84
2022/04/01 01:57:14;;;;;;;;;;;1.60;99.90;;;;;;5036859;28;19948;-84
2022/04/01 01:59:41;;;;;;;;;;;1.60;99.90;;;;;;5043266;28;20277;-83
2022/04/01 02:02:08;;;;;;;;;;;1.60;99.90;;;;;;5030643;28;19937;-83
2022/04/01 02:04:36;;;;;;;;;;;1.60;99.90;;;;;;5036865;28;19929;-82
2022/04/01 02:07:03;;;;;;;;;;;1.60;99.90;;;;;;5039074;28;20016;-83
2022/04/01 02:09:30;;;;;;;;;;;1.60;99.90;;;;;;5045468;28;20081;-83
2022/04/01 02:11:57;;;;;;;;;;;1.60;99.90;;;;;;5033140;28;19959;-83
2022/04/01 02:14:25;;;;;;;;;;;1.60;99.90;;;;;;5048473;28;19935;-84
2022/04/01 02:16:52;;;;;;;;;;;1.50;99.90;;;;;;5044132;28;20011;-85
2022/04/01 02:19:23;;;;;;;;;;;1.50;99.90;;;;;;5043407;28;19924;-84
2022/04/01 02:21:51;;;;;;;;;;;1.50;99.90;;;;;;5066702;28;19928;-84
2022/04/01 02:24:18;;;;;;;;;;;-0.90;99.90;;;;;;5038471;28;20419;-82
2022/04/01 02:26:47;;;;;;;;;;;1.50;99.90;;;;;;5044182;28;19967;-84
2022/04/01 02:29:15;;;;;;;;;;;1.50;99.90;;;;;;5045676;28;19925;-84
2022/04/01 02:32:03;;;;;;;;;;;1.50;99.90;;;;;;5037885;28;19925;-84
2022/04/01 02:34:54;;;;;;;;;;;1.50;99.90;;;;;;5034879;28;20015;-85
2022/04/01 02:37:25;;;;;;;;;;;1.50;99.90;;;;;;5041318;28;19975;-85
2022/04/01 02:39:53;;;;;;;;;;;1.60;99.90;;;;;;5041092;28;19943;-84
2022/04/01 02:42:23;;;;;;;;;;;1.60;99.90;;;;;;5041115;28;19972;-83
2022/04/01 02:44:50;;;;;;;;;;;2.90;99.90;;;;;;5034367;28;19913;-83
2022/04/01 02:47:20;;;;;;;;;;;1.60;99.90;;;;;;5042404;28;19929;-83
2022/04/01 02:49:50;;;;;;;;;;;1.50;99.90;;;;;;5048595;28;19925;-83
2022/04/01 02:52:17;;;;;;;;;;;1.50;99.90;;;;;;5047319;28;19960;-83
2022/04/01 02:54:45;;;;;;;;;;;1.50;99.90;;;;;;5039049;28;20663;-82
2022/04/01 02:57:12;;;;;;;;;;;1.50;99.90;;;;;;5040878;28;19928;-82
2022/04/01 02:59:40;;;;;;;;;;;1.60;99.90;;;;;;5036747;28;19932;-83
2022/04/01 03:02:09;;;;;;;;;;;1.50;99.90;;;;;;5034536;28;19940;-83
2022/04/01 03:04:37;;;;;;;;;;;1.60;99.90;;;;;;5033871;28;19928;-82
2022/04/01 03:07:04;;;;;;;;;;;1.60;99.90;;;;;;5037051;28;19932;-82
2022/04/01 03:09:33;;;;;;;;;;;1.60;99.90;;;;;;5040352;28;19932;-82
2022/04/01 03:12:20;;;;;;;;;;;1.60;99.90;;;;;;5044234;28;20023;-82
2022/04/01 03:14:50;;;;;;;;;;;1.60;99.90;;;;;;5048829;28;19940;-82
2022/04/01 03:17:37;;;;;;;;;;;1.50;99.90;;;;;;5034530;28;19964;-81
2022/04/01 03:20:13;;;;;;;;;;;1.50;99.90;;;;;;5038448;28;19935;-81
2022/04/01 03:22:42;;;;;;;;;;;1.50;99.90;;;;;;5034864;28;19949;-81
2022/04/01 03:25:10;;;;;;;;;;;1.50;99.90;;;;;;5055929;28;19925;-82
2022/04/01 03:27:49;;;;;;;;;;;1.50;99.90;;;;;;5037422;28;19972;-82
2022/04/01 03:30:18;;;;;;;;;;;1.50;99.90;;;;;;5037074;28;19994;-82
2022/04/01 03:32:45;;;;;;;;;;;1.50;99.90;;;;;;5037597;28;19954;-82
2022/04/01 03:35:15;;;;;;;;;;;1.40;99.90;;;;;;5034153;28;20300;-81
2022/04/01 03:37:42;;;;;;;;;;;1.40;99.90;;;;;;5038596;28;20376;-82
2022/04/01 03:40:10;;;;;;;;;;;1.30;99.90;;;;;;5031971;28;19924;-83
2022/04/01 03:42:37;;;;;;;;;;;1.30;99.90;;;;;;5051633;28;19960;-82
2022/04/01 03:45:06;;;;;;;;;;;1.30;99.90;;;;;;5030869;28;20003;-83
2022/04/01 03:47:58;;;;;;;;;;;1.20;99.90;;;;;;5035378;28;19955;-82
2022/04/01 03:50:30;;;;;;;;;;;1.20;99.90;;;;;;5041670;28;19929;-80
2022/04/01 03:53:10;;;;;;;;;;;1.20;99.90;;;;;;5031596;28;19941;-81
2022/04/01 03:55:40;;;;;;;;;;;1.10;99.90;;;;;;5049804;28;19927;-81
2022/04/01 03:58:31;;;;;;;;;;;1.00;99.90;;;;;;5026430;28;19925;-81
2022/04/01 04:01:17;;;;;;;;;;;0.90;99.90;;;;;;5038593;28;19940;-80
2022/04/01 04:03:45;;;;;;;;;;;0.80;99.90;;;;;;5036471;28;19936;-80
2022/04/01 04:06:13;;;;;;;;;;;0.80;99.90;;;;;;5030692;28;19960;-81
2022/04/01 04:08:42;;;;;;;;;;;0.80;99.90;;;;;;5028920;28;19932;-81
2022/04/01 04:11:09;;;;;;;;;;;0.80;99.90;;;;;;5038950;28;19913;-83
2022/04/01 04:14:00;;;;;;;;;;;0.80;99.90;;;;;;5038314;28;19924;-82
2022/04/01 04:16:30;;;;;;;;;;;0.90;99.90;;;;;;5025839;28;19933;-82
2022/04/01 04:19:01;;;;;;;;;;;0.90;99.90;;;;;;5027083;28;19919;-82
2022/04/01 04:21:36;;;;;;;;;;;0.90;99.90;;;;;;5031024;28;20016;-82
2022/04/01 04:24:03;;;;;;;;;;;0.90;99.90;;;;;;5031521;28;19954;-82
2022/04/01 04:26:35;;;;;;;;;;;0.80;99.90;;;;;;5032596;28;20674;-83
2022/04/01 04:29:07;;;;;;;;;;;0.90;99.90;;;;;;5042126;28;19935;-82
2022/04/01 04:31:43;;;;;;;;;;;0.80;99.90;;;;;;5036875;28;20424;-82
2022/04/01 04:34:15;;;;;;;;;;;0.80;99.90;;;;;;5037986;28;19967;-80
2022/04/01 04:36:43;;;;;;;;;;;0.70;99.90;;;;;;5037842;28;19924;-80
2022/04/01 04:39:15;;;;;;;;;;;0.80;99.90;;;;;;5041270;28;19975;-81
2022/04/01 04:41:43;;;;;;;;;;;0.80;99.90;;;;;;5040672;28;19947;-80
2022/04/01 04:44:11;;;;;;;;;;;0.80;99.90;;;;;;5057407;28;19929;-79
2022/04/01 04:46:43;;;;;;;;;;;0.70;99.90;;;;;;5033908;28;19933;-80
2022/04/01 04:49:10;;;;;;;;;;;0.70;99.90;;;;;;5042818;28;19929;-81
2022/04/01 04:51:37;;;;;;;;;;;0.60;99.90;;;;;;5030929;28;19937;-82
2022/04/01 04:54:21;;;;;;;;;;;0.60;99.90;;;;;;5032034;28;19932;-81
2022/04/01 04:57:04;;;;;;;;;;;0.70;99.90;;;;;;5038963;28;19925;-83
2022/04/01 04:59:32;;;;;;;;;;;0.70;99.90;;;;;;5038842;28;19925;-81
2022/04/01 05:02:04;;;;;;;;;;;0.70;99.90;;;;;;5031220;28;20003;-80
2022/04/01 05:04:43;;;;;;;;;;;0.70;99.90;;;;;;5037471;28;19929;-80
2022/04/01 05:07:18;;;;;;;;;;;0.70;99.90;;;;;;5037757;28;19924;-81
2022/04/01 05:10:08;;;;;;;;;;;;;;;;;;5042900;28;19933;-81
2022/04/01 05:12:41;;;;;;;;;;;0.80;99.90;;;;;;5034024;28;19983;-81
2022/04/01 05:15:35;;;;;;;;;;;0.80;99.90;;;;;;5040729;28;19935;-80
2022/04/01 05:18:09;;;;;;;;;;;0.80;99.90;;;;;;5034918;28;19948;-80
2022/04/01 05:20:38;;;;;;;;;;;0.80;99.90;;;;;;5044522;28;19925;-80
2022/04/01 05:23:11;;;;;;;;;;;0.70;99.90;;;;;;5029478;28;19913;-80
2022/04/01 05:25:41;;;;;;;;;;;0.70;99.90;;;;;;5051647;28;19936;-80
2022/04/01 05:28:31;;;;;;;;;;;0.70;99.90;;;;;;5033690;28;19986;-80
2022/04/01 05:31:04;;;;;;;;;;;0.70;99.90;;;;;;5023245;28;19936;-80
2022/04/01 05:33:39;;;;;;;;;;;0.70;99.90;;;;;;5031251;28;20537;-82
2022/04/01 05:36:09;;;;;;;;;;;0.70;99.90;;;;;;5029477;28;19924;-82
2022/04/01 05:38:37;;;;;;;;;;;0.80;99.90;;;;;;5032123;28;19928;-82
2022/04/01 05:41:04;;;;;;;;;;;0.80;99.90;;;;;;5034670;28;20047;-82
2022/04/01 05:43:33;;;;;;;;;;;0.80;99.90;;;;;;5040595;28;19979;-83
2022/04/01 05:46:23;;;;;;;;;;;0.80;99.90;;;;;;5041048;28;19929;-82
2022/04/01 05:48:53;;;;;;;;;;;0.80;99.90;;;;;;5038297;28;19935;-83
2022/04/01 05:51:21;;;;;;;;;;;0.70;99.90;;;;;;5468416;22;19918;-83
2022/04/01 05:53:51;;;;;;;;;;;0.80;99.90;;;;;;5039191;28;19929;-83
2022/04/01 05:56:18;;;;;;;;;;;0.80;99.90;;;;;;5036964;28;20437;-82
2022/04/01 05:58:47;;;;;;;;;;;0.90;99.90;;;;;;5044553;22;20571;-80
2022/04/01 06:01:14;;;;;;;;;;;;;;;;;;5480406;22;19923;-81
2022/04/01 06:03:51;;;;;;;;;;;0.90;99.90;;;;;;5007483;28;20526;-81
2022/04/01 06:06:21;;;;;;;;;;;0.90;99.90;;;;;;5012922;28;19925;-81
2022/04/01 06:08:53;;;;;;;;;;;0.90;99.90;;;;;;5018382;28;19925;-81
2022/04/01 06:11:46;;;;;;;;;;;0.90;99.90;;;;;;5007001;28;19929;-81
2022/04/01 06:14:53;;;;;;;;;;;0.90;99.90;;;;;;4978723;28;19930;-82
2022/04/01 06:17:52;;;;;;;;;;;1.00;99.90;;;;;;4995722;28;19933;-82
2022/04/01 06:20:21;;;;;;;;;;;1.10;99.90;;;;;;5001621;28;19953;-81
2022/04/01 06:22:50;;;;;;;;;;;1.00;99.90;;;;;;4994265;28;20028;-82
2022/04/01 06:25:20;;;;;;;;;;;1.00;99.90;;;;;;4996658;28;19980;-81
2022/04/01 06:27:49;;;;;;;;;;;1.00;99.90;;;;;;4997950;28;20335;-81
2022/04/01 06:30:18;;;;;;;;;;;1.10;99.90;;;;;;4994286;28;19933;-81
2022/04/01 06:32:56;;;;;;;;;;;1.00;99.90;;;;;;4997502;28;19937;-80
2022/04/01 06:35:51;;;;;;;;;;;1.00;99.90;;;;;;5004596;28;20693;-82
2022/04/01 06:38:32;;;;;;;;;;;1.00;99.90;;;;;;4995780;28;20356;-82
2022/04/01 06:41:00;;;;;;;;;;;1.10;99.90;;;;;;4996550;28;19933;-84
2022/04/01 06:43:37;;;;;;;;;;;1.10;99.90;;;;;;5000407;28;19968;-84
2022/04/01 06:46:11;;;;;;;;;;;1.40;99.90;;;;;;4997944;28;19968;-81
2022/04/01 06:48:42;;;;;;;;;;;1.10;99.90;;;;;;5004392;28;20392;-81
2022/04/01 06:51:27;;;;;;;;;;;1.10;99.90;;;;;;4997614;28;19935;-81
2022/04/01 06:54:13;;;;;;;;;;;1.10;99.90;;;;;;4992858;28;19944;-82
2022/04/01 06:57:00;;;;;;;;;;;1.10;99.90;;;;;;5003420;28;19930;-84
2022/04/01 06:59:35;;;;;;;;;;;1.10;99.90;;;;;;4994933;28;19929;-83
2022/04/01 07:02:04;;;;;;;;;;;1.10;99.90;;;;;;4997831;28;20360;-83
2022/04/01 07:04:31;;;;;;;;;;;1.10;99.90;;;;;;4996792;28;19930;-83
2022/04/01 07:06:59;;;;;;;;;;;1.20;99.90;;;;;;5002924;28;20320;-84
2022/04/01 07:09:26;;;;;;;;;;;1.20;99.90;;;;;;4999854;28;19937;-83
2022/04/01 07:11:53;;;;;;;;;;;1.30;99.90;;;;;;5004134;28;19942;-84
2022/04/01 07:14:20;;;;;;;;;;;1.20;99.90;;;;;;4998063;28;19989;-84
2022/04/01 07:16:47;;;;;;;;;;;1.20;99.90;;;;;;4998330;28;19925;-83
2022/04/01 07:19:15;;;;;;;;;;;1.20;99.90;;;;;;4996850;28;19944;-83
2022/04/01 07:21:42;;;;;;;;;;;1.20;99.90;;;;;;4999853;28;19977;-83
2022/04/01 07:24:09;;;;;;;;;;;1.20;99.90;;;;;;4990813;28;20408;-84
2022/04/01 07:26:37;;;;;;;;;;;1.20;99.90;;;;;;4995615;28;20301;-83
2022/04/01 07:29:06;;;;;;;;;;;1.20;99.90;;;;;;4987782;28;19930;-82
2022/04/01 07:34:21;;;;;;;;;;;1.40;99.90;;;;;;4996688;28;20177;-83
2022/04/01 07:36:49;;;;;;;;;;;1.40;99.90;;;;;;4988407;28;19930;-83
2022/04/01 07:39:16;;;;;;;;;;;1.40;99.90;;;;;;4994455;28;19934;-83
2022/04/01 07:41:43;;;;;;;;;;;1.40;99.90;;;;;;4993319;28;19980;-83
2022/04/01 07:44:10;;;;;;;;;;;1.40;99.90;;;;;;5001589;28;19930;-83
2022/04/01 07:46:37;;;;;;;;;;;1.40;99.90;;;;;;4999532;28;19925;-82
2022/04/01 07:49:04;;;;;;;;;;;1.40;99.90;;;;;;5011132;28;20625;-84
2022/04/01 07:51:32;;;;;;;;;;;1.60;99.90;;;;;;5458371;23;19913;-84
2022/04/01 07:53:59;;;;;;;;;;;1.60;99.90;;;;;;5046517;28;19913;-83
2022/04/01 07:56:30;;;;;;;;;;;1.70;99.90;;;;;;5041355;28;19925;-83
2022/04/01 07:58:57;;;;;;;;;;;1.60;99.90;;;;;;5041284;28;19940;-85
2022/04/01 08:01:24;;;;;;;;;;;1.60;99.90;;;;;;5042627;28;19952;-85
2022/04/01 08:03:51;;;;;;;;;;;1.60;99.90;;;;;;5040907;28;19929;-83
2022/04/01 08:06:18;;;;;;;;;;;1.50;99.90;;;;;;5041448;28;20559;-86
2022/04/01 08:08:47;;;;;;;;;;;1.50;99.90;;;;;;5040734;28;20406;-83
2022/04/01 08:11:13;;;;;;;;;;;2.30;99.90;;;;;;5413625;22;20297;-77
2022/04/01 08:13:40;;;;;;;;;;;1.40;99.90;;;;;;5058341;28;19932;-78
2022/04/01 08:16:08;;;;;;;;;;;1.50;99.90;;;;;;5058884;28;19975;-80
2022/04/01 08:18:34;;;;;;;;;;;1.50;99.90;;;;;;5069989;28;19936;-79
2022/04/01 08:21:01;;;;;;;;;;;1.60;99.90;;;;;;5051018;28;20464;-78
2022/04/01 08:23:34;;;;;;;;;;;1.60;99.90;;;;;;5047446;28;20398;-78
2022/04/01 08:26:02;;;;;;;;;;;1.60;99.90;;;;;;5049660;28;19974;-78
2022/04/01 08:28:29;;;;;;;;;;;1.70;99.90;;;;;;5054636;28;20012;-80
2022/04/01 08:30:57;;;;;;;;;;;1.70;99.90;;;;;;5056128;28;19932;-78
2022/04/01 08:33:24;;;;;;;;;;;1.70;99.90;;;;;;5039287;28;19929;-79
2022/04/01 08:35:50;;;;;;;;;;;1.70;99.90;;;;;;5047754;28;19936;-79
2022/04/01 08:38:17;;;;;;;;;;;1.70;99.90;;;;;;5040181;28;20025;-80
2022/04/01 08:40:44;;;;;;;;;;;1.70;99.90;;;;;;5037812;28;19939;-79
2022/04/01 08:43:12;;;;;;;;;;;1.70;99.90;;;;;;5055571;28;19931;-80
2022/04/01 08:45:39;;;;;;;;;;;1.70;99.90;;;;;;5076374;28;19931;-79
2022/04/01 08:48:07;;;;;;;;;;;1.70;99.90;;;;;;5077046;28;19932;-79
2022/04/01 08:50:34;;;;;;;;;;;1.70;99.90;;;;;;5046797;28;20136;-80
2022/04/01 08:53:01;;;;;;;;;;;1.80;99.90;;;;;;5057811;28;19929;-78
2022/04/01 08:55:28;;;;;;;;;;;1.90;99.90;;;;;;5041718;28;19930;-79
2022/04/01 08:57:54;;;;;;;;;;;2.00;99.90;;;;;;5039127;28;20391;-79
2022/04/01 09:00:36;;;;;;;;;;;2.00;99.90;;;;;;5047302;28;20612;-79
2022/04/01 09:03:05;;;;;;;;;;;2.00;99.90;;;;;;5046233;28;19929;-79
2022/04/01 09:05:32;;;;;;;;;;;1.90;99.90;;;;;;5038028;28;19975;-80
2022/04/01 09:08:00;;;;;;;;;;;1.90;99.90;;;;;;5046411;28;19933;-79
2022/04/01 09:10:27;;;;;;;;;;;1.90;99.90;;;;;;5041964;28;19956;-80
2022/04/01 09:12:54;;;;;;;;;;;1.80;99.90;;;;;;5041636;28;19945;-78
2022/04/01 09:15:22;;;;;;;;;;;1.90;99.90;;;;;;5051994;28;19931;-78
2022/04/01 09:18:18;;;;;;;;;;;2.00;99.90;;;;;;5139836;22;19933;-84
2022/04/01 09:24:22;;;;;;;;;;;2.10;99.90;;;;;;5045655;28;20332;-85
2022/04/01 09:30:07;;;;;;;;;;;2.20;99.90;;;;;;5050176;28;19925;-85
2022/04/01 09:32:48;;;;;;;;;;;2.20;99.90;;;;;;5055197;28;19945;-85
2022/04/01 09:42:16;;;;;;;;;;;2.30;99.90;;;;;;4965936;28;19930;-87
2022/04/01 09:45:22;;;;;;;;;;;2.30;99.90;;;;;;5007565;28;20032;-85
2022/04/01 09:48:25;;;;;;;;;;;2.30;99.90;;;;;;5044949;28;20265;-85
2022/04/01 09:51:03;;;;;;;;;;;2.30;99.90;;;;;;5046560;28;19992;-84
2022/04/01 09:53:30;;;;;;;;;;;2.30;99.90;;;;;;5052482;28;19929;-84
2022/04/01 09:55:58;;;;;;;;;;;2.30;99.90;;;;;;5051438;28;19939;-84
2022/04/01 09:58:25;;;;;;;;;;;2.40;99.90;;;;;;5056341;28;19919;-85
2022/04/01 10:00:56;;;;;;;;;;;2.40;99.90;;;;;;5056852;28;20004;-84
2022/04/01 10:03:23;;;;;;;;;;;2.40;99.90;;;;;;5053362;28;19925;-84
2022/04/01 10:05:50;;;;;;;;;;;3.20;99.90;;;;;;5047366;28;19925;-85
2022/04/01 10:08:17;;;;;;;;;;;2.40;99.90;;;;;;5046768;28;19925;-85
2022/04/01 10:10:45;;;;;;;;;;;2.50;99.90;;;;;;5051081;28;19925;-85
2022/04/01 10:13:16;;;;;;;;;;;2.60;99.90;;;;;;5046701;28;19929;-85
2022/04/01 10:15:43;;;;;;;;;;;3.10;99.90;;;;;;5041685;28;19925;-85
2022/04/01 10:18:13;;;;;;;;;;;2.60;99.90;;;;;;5049733;28;19929;-85
2022/04/01 10:20:42;;;;;;;;;;;3.90;99.90;;;;;;5055436;28;19987;-85
2022/04/01 10:23:11;;;;;;;;;;;2.50;99.90;;;;;;5052575;28;19986;-86
2022/04/01 10:25:45;;;;;;;;;;;2.60;99.90;;;;;;5047848;28;20369;-83
2022/04/01 10:28:13;;;;;;;;;;;2.60;99.90;;;;;;5055733;28;19932;-84
2022/04/01 10:30:41;;;;;;;;;;;2.70;99.90;;;;;;5053366;28;19974;-84
2022/04/01 10:33:09;;;;;;;;;;;2.70;99.90;;;;;;5058706;28;19925;-86
2022/04/01 10:35:38;;;;;;;;;;;2.80;99.90;;;;;;5045901;28;20013;-83
2022/04/01 10:38:19;;;;;;;;;;;3.10;99.90;;;;;;5054416;28;20638;-84
2022/04/01 10:40:49;;;;;;;;;;;2.80;99.90;;;;;;5049041;28;20230;-83
2022/04/01 10:43:17;;;;;;;;;;;2.80;99.90;;;;;;5051720;28;20063;-84
2022/04/01 10:45:56;;;;;;;;;;;2.80;99.90;;;;;;5038515;28;20077;-86
2022/04/01 10:54:01;;;;;;;;;;;2.70;99.90;;;;;;5037473;28;19943;-86
2022/04/01 10:56:32;;;;;;;;;;;2.60;99.90;;;;;;5053201;28;19979;-86
2022/04/01 10:59:08;;;;;;;;;;;4.40;99.90;;;;;;5037919;28;21369;-86
2022/04/01 11:01:35;;;;;;;;;;;2.60;99.90;;;;;;5045419;28;19971;-84
2022/04/01 11:04:03;;;;;;;;;;;2.60;99.90;;;;;;5050184;28;19928;-85
2022/04/01 11:06:30;;;;;;;;;;;2.70;99.90;;;;;;5056964;28;19925;-86
2022/04/01 11:08:57;;;;;;;;;;;2.80;99.90;;;;;;5049119;28;19960;-85
2022/04/01 11:11:25;;;;;;;;;;;2.80;99.90;;;;;;5038701;28;19998;-85
2022/04/01 11:14:03;;;;;;;;;;;2.80;99.90;;;;;;5046086;28;19929;-85
2022/04/01 11:16:45;;;;;;;;;;;2.80;99.90;;;;;;5033347;28;19940;-86
2022/04/01 11:19:15;;;;;;;;;;;3.30;99.90;;;;;;5042832;28;19956;-85
2022/04/01 11:21:43;;;;;;;;;;;2.80;99.90;;;;;;5047826;28;20472;-84
2022/04/01 11:24:21;;;;;;;;;;;2.80;99.90;;;;;;5031179;28;19933;-85
2022/04/01 11:26:50;;;;;;;;;;;2.80;99.90;;;;;;5031219;28;19936;-84
2022/04/01 11:29:21;;;;;;;;;;;3.70;99.90;;;;;;5037914;28;19925;-83
2022/04/01 11:31:50;;;;;;;;;;;2.90;99.90;;;;;;5043296;28;20095;-84
2022/04/01 11:34:17;;;;;;;;;;;3.00;99.90;;;;;;5036602;28;19959;-84
2022/04/01 11:36:44;;;;;;;;;;;2.90;99.90;;;;;;5037143;28;19952;-83
2022/04/01 11:39:19;;;;;;;;;;;2.90;99.90;;;;;;5042348;28;20345;-85
2022/04/01 11:41:54;;;;;;;;;;;2.90;99.90;;;;;;5056019;28;20034;-84
2022/04/01 11:44:23;;;;;;;;;;;2.90;99.90;;;;;;5054037;28;19925;-83
2022/04/01 11:46:54;;;;;;;;;;;4.20;99.90;;;;;;5057206;28;19913;-85
2022/04/01 11:49:25;;;;;;;;;;;2.90;99.90;;;;;;5067729;22;19956;-79
2022/04/01 11:51:53;;;;;;;;;;;2.90;99.90;;;;;;5049082;28;19987;-79
2022/04/01 11:54:20;;;;;;;;;;;2.90;99.90;;;;;;5039422;28;19925;-79
2022/04/01 11:56:53;;;;;;;;;;;2.90;99.90;;;;;;5049671;28;19933;-79
2022/04/01 11:59:20;;;;;;;;;;;2.80;99.90;;;;;;5030993;28;19959;-79
2022/04/01 12:01:58;;;;;;;;;;;2.80;99.90;;;;;;5042685;28;20308;-78
2022/04/01 12:04:29;;;;;;;;;;;2.70;99.90;;;;;;5048198;28;19925;-79
2022/04/01 12:09:43;;;;;;;;;;;2.60;99.90;;;;;;5029864;28;20365;-81
2022/04/01 12:12:11;;;;;;;;;;;2.60;99.90;;;;;;5024603;28;20486;-79
2022/04/01 12:14:39;;;;;;;;;;;2.60;99.90;;;;;;5038760;28;19933;-81
2022/04/01 12:17:08;;;;;;;;;;;2.50;99.90;;;;;;5045778;28;19975;-80
2022/04/01 12:19:35;;;;;;;;;;;2.50;99.90;;;;;;5021101;28;19932;-78
2022/04/01 12:22:04;;;;;;;;;;;2.50;99.90;;;;;;5047168;28;19963;-79
2022/04/01 12:24:31;;;;;;;;;;;2.40;99.90;;;;;;5052420;28;19951;-79
2022/04/01 12:26:59;;;;;;;;;;;2.40;99.90;;;;;;5025687;28;19929;-79
2022/04/01 12:29:29;;;;;;;;;;;2.40;99.90;;;;;;5053536;28;19925;-77
2022/04/01 12:31:57;;;;;;;;;;;2.40;99.90;;;;;;5053963;28;19925;-79
2022/04/01 12:34:24;;;;;;;;;;;2.50;99.90;;;;;;5039263;28;20060;-78
2022/04/01 12:36:55;;;;;;;;;;;2.60;99.90;;;;;;5052787;28;20453;-79
2022/04/01 12:39:22;;;;;;;;;;;2.60;99.90;;;;;;5054430;28;19929;-79
2022/04/01 12:41:50;;;;;;;;;;;2.50;99.90;;;;;;5056578;28;19932;-79
2022/04/01 12:44:17;;;;;;;;;;;2.40;99.90;;;;;;5034672;28;19925;-80
2022/04/01 12:46:48;;;;;;;;;;;2.70;99.90;;;;;;5053660;28;19929;-76
2022/04/01 12:49:16;;;;;;;;;;;2.40;99.90;;;;;;5048414;28;19963;-79
2022/04/01 12:51:48;;;;;;;;;;;2.30;99.90;;;;;;5045077;28;19929;-79
2022/04/01 12:54:24;;;;;;;;;;;2.10;99.90;;;;;;5051735;28;19981;-79
2022/04/01 12:56:58;;;;;;;;;;;2.00;99.90;;;;;;5044833;28;20070;-80
2022/04/01 12:59:25;;;;;;;;;;;1.90;99.90;;;;;;5026842;28;20179;-79
2022/04/01 13:01:59;;;;;;;;;;;1.70;99.90;;;;;;5048143;28;19984;-81
2022/04/01 13:04:37;;;;;;;;;;;1.80;99.90;;;;;;5033698;28;19967;-80
2022/04/01 13:07:09;;;;;;;;;;;1.90;99.90;;;;;;5030173;28;19956;-79
2022/04/01 13:09:45;;;;;;;;;;;1.90;99.90;;;;;;5050394;28;19982;-81
2022/04/01 13:12:12;;;;;;;;;;;1.90;99.90;;;;;;5044897;28;19972;-78
2022/04/01 13:14:39;;;;;;;;;;;1.80;99.90;;;;;;5050632;28;19947;-77
2022/04/01 13:17:11;;;;;;;;;;;1.80;99.90;;;;;;5031324;28;19994;-78
2022/04/01 13:19:38;;;;;;;;;;;1.80;99.90;;;;;;5034969;28;19939;-78
2022/04/01 13:22:07;;;;;;;;;;;1.70;99.90;;;;;;5026453;28;19937;-78
2022/04/01 13:24:38;;;;;;;;;;;1.80;99.90;;;;;;5039051;28;19928;-77
2022/04/01 13:27:05;;;;;;;;;;;;;;;;;;5324005;22;19939;-82
2022/04/01 13:29:38;;;;;;;;;;;2.00;99.90;;;;;;5070200;28;19933;-82
2022/04/01 13:32:18;;;;;;;;;;;2.10;99.90;;;;;;5055700;28;19940;-82
2022/04/01 13:34:51;;;;;;;;;;;2.00;99.90;;;;;;5032929;28;19948;-83
2022/04/01 13:40:20;;;;;;;;;;;2.20;99.90;;;;;;5047246;28;19956;-83
2022/04/01 13:42:56;;;;;;;;;;;2.30;99.90;;;;;;5051681;28;19928;-84
2022/04/01 13:45:33;;;;;;;;;;;2.50;99.90;;;;;;5054993;28;19925;-83
2022/04/01 13:51:19;;;;;;;;;;;2.70;99.90;;;;;;5044574;28;19933;-83
2022/04/01 13:53:49;;;;;;;;;;;2.70;99.90;;;;;;5031107;28;19925;-82
2022/04/01 13:56:16;;;;;;;;;;;2.80;99.90;;;;;;5037229;28;19925;-82
2022/04/01 13:58:49;;;;;;;;;;;2.80;99.90;;;;;;5044660;28;20020;-83
2022/04/01 14:01:19;;;;;;;;;;;2.60;99.90;;;;;;5041721;28;19924;-83
2022/04/01 14:03:49;;;;;;;;;;;2.50;99.90;;;;;;5037777;28;19929;-83
2022/04/01 14:06:18;;;;;;;;;;;2.50;99.90;;;;;;5033446;28;19925;-83
2022/04/01 14:08:46;;;;;;;;;;;2.40;99.90;;;;;;5037766;28;20034;-83
2022/04/01 14:11:13;;;;;;;;;;;2.40;99.90;;;;;;5039185;28;19929;-83
2022/04/01 14:13:40;;;;;;;;;;;2.40;99.90;;;;;;5030551;28;19929;-83
2022/04/01 14:16:09;;;;;;;;;;;2.30;99.90;;;;;;5036835;28;19944;-83
2022/04/01 14:18:38;;;;;;;;;;;2.40;99.90;;;;;;5034671;28;19928;-83
2022/04/01 14:21:14;;;;;;;;;;;2.40;99.90;;;;;;5021231;28;20040;-83
2022/04/01 14:23:45;;;;;;;;;;;2.60;99.90;;;;;;5039140;28;19925;-82
2022/04/01 14:26:12;;;;;;;;;;;2.70;99.90;;;;;;5029262;28;19999;-82
2022/04/01 14:28:39;;;;;;;;;;;2.70;99.90;;;;;;5043280;28;19949;-84
2022/04/01 14:31:07;;;;;;;;;;;2.80;99.90;;;;;;5029335;28;19933;-83
2022/04/01 14:33:34;;;;;;;;;;;2.80;99.90;;;;;;5034804;28;19979;-82
2022/04/01 14:36:01;;;;;;;;;;;2.60;99.90;;;;;;5032481;28;20007;-82
2022/04/01 14:38:28;;;;;;;;;;;2.50;99.90;;;;;;5021843;28;19932;-82
2022/04/01 14:40:56;;;;;;;;;;;2.20;99.90;;;;;;5030585;28;19926;-82
2022/04/01 14:43:23;;;;;;;;;;;2.20;99.90;;;;;;5038467;28;19935;-82
2022/04/01 14:45:50;;;;;;;;;;;2.20;99.90;;;;;;5044293;28;20004;-81
2022/04/01 14:48:18;;;;;;;;;;;2.10;99.90;;;;;;5041600;28;20004;-81
2022/04/01 14:50:45;;;;;;;;;;;1.90;99.90;;;;;;5035519;28;19995;-81
2022/04/01 14:53:12;;;;;;;;;;;1.90;99.90;;;;;;5034059;28;20723;-82
2022/04/01 14:55:39;;;;;;;;;;;1.90;99.90;;;;;;5034583;28;20740;-82
2022/04/01 14:58:08;;;;;;;;;;;1.80;99.90;;;;;;5057304;28;19932;-81
2022/04/01 15:00:35;;;;;;;;;;;1.50;99.90;;;;;;5036547;28;19929;-82
2022/04/01 15:03:03;;;;;;;;;;;1.40;99.90;;;;;;5025207;28;20420;-81
2022/04/01 15:05:30;;;;;;;;;;;1.30;99.90;;;;;;5030389;28;19925;-81
2022/04/01 15:07:56;;;;;;;;;;;1.30;99.90;;;;;;5034226;28;20581;-81
2022/04/01 15:10:24;;;;;;;;;;;1.30;99.90;;;;;;5040684;28;19929;-81
2022/04/01 15:12:52;;;;;;;;;;;1.40;99.90;;;;;;5036213;28;19998;-81
2022/04/01 15:15:20;;;;;;;;;;;1.70;99.90;;;;;;5037770;28;19971;-81
2022/04/01 15:17:47;;;;;;;;;;;1.70;99.90;;;;;;5033912;28;19976;-81
2022/04/01 15:20:16;;;;;;;;;;;1.80;99.90;;;;;;5033969;28;20417;-81
2022/04/01 15:22:43;;;;;;;;;;;1.80;99.90;;;;;;5020140;28;19944;-81
2022/04/01 15:25:12;;;;;;;;;;;1.80;99.90;;;;;;5034895;28;19925;-82